Time;durP1;ratioP1;P1;durP2;ratioP2;P2;SDS_P1;SDS_P2;PMS_P1;PMS_P2;Temp;Humidity;BMP_temperature;BMP_pressure;BME280_temperature;BME280_humidity;BME280_pressure;Samples;Min_cycle;Max_cycle;Signal;HPM_P1;HPM_P2
2022/09/03 00:01:38;;;;;;;24.23;20.15;;;;;;;18.85;100.00;98468.13;4847011;29;20033;-87
2022/09/03 00:04:15;;;;;;;25.65;21.02;;;;;;;18.79;100.00;98456.69;4845734;29;20045;-88
2022/09/03 00:06:54;;;;;;;29.80;21.80;;;;;;;18.74;100.00;98463.84;4862916;29;20030;-86
2022/09/03 00:09:20;;;;;;;23.33;19.88;;;;;;;18.74;100.00;98464.63;4828308;29;20090;-86
2022/09/03 00:12:01;;;;;;;32.22;24.23;;;;;;;18.74;100.00;98461.19;4860724;29;20045;-86
2022/09/03 00:14:57;;;;;;;33.22;24.08;;;;;;;18.78;100.00;98459.59;4874724;29;20129;-88
2022/09/03 00:17:28;;;;;;;25.35;20.48;;;;;;;18.74;100.00;98459.31;4853159;29;20129;-87
2022/09/03 00:20:02;;;;;;;29.25;22.65;;;;;;;18.72;100.00;98460.66;4854056;29;20041;-89
2022/09/03 00:22:38;;;;;;;26.50;21.25;;;;;;;18.65;100.00;98460.91;4855317;29;20383;-90
2022/09/03 00:25:10;;;;;;;28.63;23.55;;;;;;;18.59;100.00;98454.00;4848484;29;20388;-89
2022/09/03 00:27:39;;;;;;;29.13;24.23;;;;;;;18.63;100.00;98463.03;4851638;29;20037;-90
2022/09/03 00:30:10;;;;;;;30.13;23.25;;;;;;;18.56;100.00;98452.66;4852768;29;20045;-87
2022/09/03 00:32:47;;;;;;;26.05;20.98;;;;;;;18.52;100.00;98459.56;4834309;29;20187;-89
2022/09/03 00:35:46;;;;;;;32.53;22.55;;;;;;;18.52;100.00;98451.56;4868106;29;20400;-88
2022/09/03 00:38:13;;;;;;;27.52;22.40;;;;;;;18.37;100.00;98436.38;4831786;29;20093;-89
2022/09/03 00:40:56;;;;;;;40.67;26.05;;;;;;;18.54;100.00;98436.16;4854951;29;20494;-90
2022/09/03 00:43:52;;;;;;;34.45;26.08;;;;;;;18.55;100.00;98445.72;4847393;29;20448;-89
2022/09/03 00:46:41;;;;;;;28.25;21.98;;;;;;;18.51;100.00;98442.78;4851270;29;20073;-88
2022/09/03 00:49:24;;;;;;;35.20;24.95;;;;;;;18.56;100.00;98448.13;4848083;29;20387;-88
2022/09/03 00:52:22;;;;;;;31.50;25.05;;;;;;;18.51;100.00;98442.78;4840516;29;20109;-89
2022/09/03 00:55:19;;;;;;;33.08;23.67;;;;;;;18.54;100.00;98447.56;4828324;29;20405;-90
2022/09/03 00:58:08;;;;;;;34.45;24.38;;;;;;;18.48;100.00;98434.56;4853124;29;20036;-88
2022/09/03 01:00:33;;;;;;;29.65;24.95;;;;;;;18.45;100.00;98435.06;4865596;29;20117;-89
2022/09/03 01:03:08;;;;;;;29.63;23.75;;;;;;;18.37;100.00;98434.53;4847412;29;20545;-87
2022/09/03 01:06:02;;;;;;;32.80;25.70;;;;;;;18.40;100.00;98431.34;4846074;29;20044;-89
2022/09/03 01:09:00;;;;;;;31.23;24.02;;;;;;;18.37;100.00;98433.72;4868839;29;20034;-88
2022/09/03 01:11:46;;;;;;;30.55;24.95;;;;;;;18.37;100.00;98437.19;4847312;29;20494;-89
2022/09/03 01:14:20;;;;;;;33.50;25.55;;;;;;;18.34;100.00;98443.00;4848314;29;20118;-87
2022/09/03 01:17:04;;;;;;;27.23;23.00;;;;;;;18.27;100.00;98426.50;4848207;29;20032;-87
2022/09/03 01:19:50;;;;;;;33.60;24.67;;;;;;;18.30;100.00;98438.47;4849289;29;20052;-86
2022/09/03 01:22:40;;;;;;;29.08;25.10;;;;;;;18.26;100.00;98427.56;4850353;29;20472;-88
2022/09/03 01:25:16;;;;;;;29.38;26.02;;;;;;;18.25;100.00;98431.28;4844462;29;20030;-89
2022/09/03 01:28:12;;;;;;;36.28;26.52;;;;;;;18.24;100.00;98414.56;4846858;29;20030;-87
2022/09/03 01:30:47;;;;;;;34.17;25.48;;;;;;;18.23;100.00;98425.44;4845687;29;20060;-89
2022/09/03 01:33:30;;;;;;;31.10;26.58;;;;;;;18.21;100.00;98424.88;4863291;29;20061;-89
2022/09/03 01:36:17;;;;;;;31.90;24.92;;;;;;;18.25;100.00;98420.66;4849201;29;20132;-88
2022/09/03 01:38:50;;;;;;;31.40;26.00;;;;;;;18.18;100.00;98417.44;4849326;29;20034;-89
2022/09/03 01:45:05;;;;;;;38.33;24.98;;;;;;;18.21;100.00;98409.78;4849760;29;20525;-89
2022/09/03 01:47:56;;;;;;;28.80;24.42;;;;;;;18.18;100.00;98399.66;4809357;29;20054;-88
2022/09/03 01:50:28;;;;;;;33.15;27.83;;;;;;;18.17;100.00;98394.59;4851152;29;20042;-88
2022/09/03 01:53:09;;;;;;;36.47;30.08;;;;;;;18.18;100.00;98390.88;4846915;29;20381;-90
2022/09/03 01:56:00;;;;;;;41.70;29.85;;;;;;;18.16;100.00;98407.06;4834020;29;20112;-87
2022/09/03 01:58:31;;;;;;;33.85;26.83;;;;;;;18.01;100.00;98389.19;4849209;29;20071;-88
2022/09/03 02:01:04;;;;;;;34.08;28.23;;;;;;;17.98;100.00;98387.06;4849198;29;20531;-89
2022/09/03 02:03:39;;;;;;;39.05;30.98;;;;;;;18.06;100.00;98396.41;4846455;29;20033;-89
2022/09/03 02:06:07;;;;;;;35.13;28.42;;;;;;;18.00;100.00;98392.91;4833731;29;20038;-90
2022/09/03 02:08:33;;;;;;;46.00;32.22;;;;;;;17.88;100.00;98400.28;4865558;29;20103;-87
2022/09/03 02:11:01;;;;;;;39.97;29.98;;;;;;;17.81;100.00;98395.22;4847756;29;20120;-88
2022/09/03 02:13:29;;;;;;;42.70;30.80;;;;;;;17.67;100.00;98378.94;4864925;29;20096;-89
2022/09/03 02:15:58;;;;;;;46.55;32.97;;;;;;;17.57;100.00;98371.72;4855322;29;20040;-89
2022/09/03 02:18:32;;;;;;;45.15;32.80;;;;;;;17.64;100.00;98379.47;4851638;29;20815;-89
2022/09/03 02:21:00;;;;;;;38.38;29.83;;;;;;;17.71;100.00;98374.75;4848410;29;20400;-91
2022/09/03 02:23:27;;;;;;;33.72;28.88;;;;;;;17.82;100.00;98376.38;4848387;29;20038;-89
2022/09/03 02:25:58;;;;;;;41.75;30.23;;;;;;;17.93;100.00;98376.44;4844373;29;20041;-87
2022/09/03 02:28:27;;;;;;;37.45;31.60;;;;;;;17.95;100.00;98379.63;4847747;29;20033;-90
2022/09/03 02:30:53;;;;;;;37.63;29.73;;;;;;;17.98;100.00;98379.09;4848635;29;20544;-89
2022/09/03 02:33:19;;;;;;;38.72;30.52;;;;;;;17.97;100.00;98372.19;4849921;29;20033;-87
2022/09/03 02:35:46;;;;;;;39.03;30.13;;;;;;;17.95;100.00;98374.31;4851518;29;20040;-87
2022/09/03 02:38:18;;;;;;;41.38;31.98;;;;;;;18.05;100.00;98390.31;4863876;29;20033;-87
2022/09/03 02:40:44;;;;;;;39.92;31.05;;;;;;;17.84;100.00;98376.91;4848528;29;20026;-87
2022/09/03 02:43:17;;;;;;;34.63;29.23;;;;;;;17.95;100.00;98404.31;4851229;29;20128;-91
2022/09/03 02:45:50;;;;;;;43.15;31.30;;;;;;;17.72;100.00;98386.94;4847999;29;20540;-89
2022/09/03 02:48:21;;;;;;;42.75;32.25;;;;;;;17.70;100.00;98386.41;4851660;29;20036;-89
2022/09/03 02:50:47;;;;;;;43.67;32.72;;;;;;;17.70;100.00;98362.53;4837512;29;20117;-87
2022/09/03 02:53:13;;;;;;;49.22;37.80;;;;;;;17.53;100.00;98347.56;4855967;29;20399;-89
2022/09/03 02:55:39;;;;;;;49.33;36.42;;;;;;;17.53;100.00;98341.47;4833142;29;20034;-88
2022/09/03 02:58:07;;;;;;;51.25;37.92;;;;;;;17.53;100.00;98346.75;4865855;29;20026;-87
2022/09/03 03:00:34;;;;;;;50.72;38.60;;;;;;;17.64;100.00;98351.09;4849865;29;20042;-88
2022/09/03 03:03:01;;;;;;;50.85;38.38;;;;;;;17.65;100.00;98349.22;4850891;29;20038;-89
2022/09/03 03:05:40;;;;;;;51.10;38.72;;;;;;;17.62;100.00;98344.41;4855112;29;20487;-87
2022/09/03 03:08:07;;;;;;;56.42;40.22;;;;;;;17.58;100.00;98332.72;4834422;29;20556;-90
2022/09/03 03:10:34;;;;;;;52.28;39.65;;;;;;;17.56;100.00;98343.59;4853550;29;20045;-90
2022/09/03 03:12:59;;;;;;;50.97;40.60;;;;;;;17.41;100.00;98339.81;4851042;29;20501;-88
2022/09/03 03:15:27;;;;;;;53.33;38.78;;;;;;;17.46;100.00;98341.69;4852153;29;20034;-88
2022/09/03 03:17:55;;;;;;;53.40;40.08;;;;;;;17.50;100.00;98345.44;4834673;29;20564;-87
2022/09/03 03:20:21;;;;;;;55.92;41.80;;;;;;;17.40;100.00;98340.88;4853097;29;20057;-89
2022/09/03 03:22:47;;;;;;;61.03;42.83;;;;;;;17.35;100.00;98340.03;4837979;29;20042;-87
2022/09/03 03:25:12;;;;;;;57.28;42.13;;;;;;;17.39;100.00;98346.44;4850805;29;20125;-89
2022/09/03 03:27:40;;;;;;;66.18;45.63;;;;;;;17.30;100.00;98347.97;4865892;29;20114;-90
2022/09/03 03:30:08;;;;;;;63.10;43.83;;;;;;;17.24;100.00;98349.78;4849541;29;20030;-87
2022/09/03 03:32:37;;;;;;;59.30;43.35;;;;;;;17.36;100.00;98345.06;4837682;29;20057;-87
2022/09/03 03:35:04;;;;;;;58.90;41.10;;;;;;;17.34;100.00;98351.72;4836981;29;20042;-86
2022/09/03 03:37:31;;;;;;;59.78;43.45;;;;;;;17.35;100.00;98348.00;4852988;29;20041;-88
2022/09/03 03:39:57;;;;;;;66.57;47.70;;;;;;;17.36;100.00;98352.25;4865994;29;20493;-88
2022/09/03 03:42:22;;;;;;;55.95;42.08;;;;;;;17.31;100.00;98345.06;4852137;29;20105;-86
2022/09/03 03:44:48;;;;;;;55.75;44.42;;;;;;;17.36;100.00;98347.72;4849666;29;20033;-88
2022/09/03 03:47:15;;;;;;;67.30;44.63;;;;;;;17.37;100.00;98340.59;4852711;29;20060;-87
2022/09/03 03:49:42;;;;;;;57.80;43.90;;;;;;;17.30;100.00;98338.16;4851429;29;20026;-87
2022/09/03 03:52:09;;;;;;;60.42;44.30;;;;;;;17.19;100.00;98326.69;4836850;29;21979;-87
2022/09/03 03:54:34;;;;;;;63.08;46.05;;;;;;;17.23;100.00;98330.41;4834540;29;20042;-87
2022/09/03 03:57:00;;;;;;;67.43;48.83;;;;;;;17.21;100.00;98332.53;4864666;29;20029;-88
2022/09/03 03:59:26;;;;;;;68.28;48.88;;;;;;;17.24;100.00;98326.72;4852294;29;20030;-88
2022/09/03 04:01:53;;;;;;;66.10;47.70;;;;;;;17.31;100.00;98333.66;4851113;29;20477;-88
2022/09/03 04:04:20;;;;;;;64.53;48.08;;;;;;;17.23;100.00;98333.06;4851102;29;20449;-89
2022/09/03 04:06:46;;;;;;;70.22;50.42;;;;;;;17.15;100.00;98319.47;4849165;29;20061;-89
2022/09/03 04:09:11;;;;;;;78.60;53.05;;;;;;;17.23;100.00;98338.38;4853595;29;20039;-89
2022/09/03 04:11:38;;;;;;;75.30;53.00;;;;;;;17.17;100.00;98327.97;4849871;29;20047;-89
2022/09/03 04:14:04;;;;;;;74.05;51.38;;;;;;;17.19;100.00;98329.34;4834732;29;20030;-89
2022/09/03 04:16:31;;;;;;;76.63;54.42;;;;;;;17.17;100.00;98328.78;4834173;29;20040;-89
2022/09/03 04:18:58;;;;;;;86.03;57.88;;;;;;;17.22;100.00;98341.28;4850809;29;20052;-89
2022/09/03 04:21:26;;;;;;;82.40;56.08;;;;;;;17.19;100.00;98347.09;4854128;29;20113;-89
2022/09/03 04:23:53;;;;;;;73.85;51.47;;;;;;;17.11;100.00;98340.44;4849247;29;20028;-89
2022/09/03 04:26:21;;;;;;;78.60;54.38;;;;;;;17.12;100.00;98352.63;4867749;29;20050;-90
2022/09/03 04:28:47;;;;;;;79.28;53.97;;;;;;;17.09;100.00;98350.47;4849752;29;20065;-89
2022/09/03 04:31:15;;;;;;;90.43;57.97;;;;;;;16.96;100.00;98338.41;4853813;29;20045;-88
2022/09/03 04:33:41;;;;;;;77.90;54.20;;;;;;;16.98;100.00;98350.41;4850423;29;20388;-89
2022/09/03 04:36:16;;;;;;;78.28;55.33;;;;;;;16.90;100.00;98340.25;4836255;29;20033;-88
2022/09/03 04:38:43;;;;;;;84.03;54.65;;;;;;;17.10;100.00;98334.31;4851326;29;20117;-89
2022/09/03 04:41:12;;;;;;;75.57;50.78;;;;;;;17.08;100.00;98322.34;4853921;29;20038;-87
2022/09/03 04:43:41;;;;;;;69.95;49.10;;;;;;;17.06;100.00;98327.94;4863758;29;20108;-86
2022/09/03 04:46:06;;;;;;;71.80;50.55;;;;;;;17.08;100.00;98325.00;4837070;29;20506;-90
2022/09/03 04:48:35;;;;;;;68.35;50.33;;;;;;;17.08;100.00;98317.88;4847032;29;20120;-89
2022/09/03 04:51:04;;;;;;;86.53;57.58;;;;;;;17.19;100.00;98320.56;4855910;29;20047;-88
2022/09/03 04:53:35;;;;;;;82.40;54.85;;;;;;;17.37;100.00;98308.75;4847091;29;20030;-87
2022/09/03 04:56:01;;;;;;;84.82;57.13;;;;;;;17.45;100.00;98315.44;4834169;29;20474;-88
2022/09/03 04:58:27;;;;;;;75.80;53.50;;;;;;;17.45;100.00;98310.13;4849658;29;20042;-89
2022/09/03 05:00:53;;;;;;;77.55;53.00;;;;;;;17.17;100.00;98296.16;4836793;29;20125;-89
2022/09/03 05:03:21;;;;;;;74.07;51.78;;;;;;;17.16;100.00;98316.59;4847994;29;20073;-89
2022/09/03 05:05:56;;;;;;;78.63;54.40;;;;;;;17.15;100.00;98308.88;4856001;29;20033;-89
2022/09/03 05:08:22;;;;;;;89.80;58.17;;;;;;;17.11;100.00;98304.09;4848763;29;20034;-89
2022/09/03 05:10:48;;;;;;;77.72;53.63;;;;;;;17.15;100.00;98322.94;4850568;29;20080;-88
2022/09/03 05:13:14;;;;;;;84.43;54.97;;;;;;;17.13;100.00;98319.75;4856224;29;20100;-88
2022/09/03 05:15:42;;;;;;;78.68;52.63;;;;;;;17.16;100.00;98316.59;4849610;29;20037;-88
2022/09/03 05:18:08;;;;;;;82.13;54.50;;;;;;;17.11;100.00;98300.66;4868793;29;20484;-89
2022/09/03 05:20:33;;;;;;;84.18;55.85;;;;;;;17.21;100.00;98319.25;4853786;29;20043;-88
2022/09/03 05:23:02;;;;;;;90.10;59.80;;;;;;;17.34;100.00;98333.16;4850457;29;20548;-89
2022/09/03 05:25:30;;;;;;;84.55;56.50;;;;;;;17.34;100.00;98327.84;4850977;29;20053;-89
2022/09/03 05:27:57;;;;;;;87.40;58.58;;;;;;;17.38;100.00;98334.22;4848258;29;20026;-88
2022/09/03 05:30:24;;;;;;;84.93;55.78;;;;;;;17.31;100.00;98323.06;4835148;29;20043;-87
2022/09/03 05:32:50;;;;;;;89.13;54.92;;;;;;;17.28;100.00;98327.78;4854037;29;20511;-88
2022/09/03 05:35:17;;;;;;;84.53;56.45;;;;;;;17.28;100.00;98330.44;4851416;29;20049;-87
2022/09/03 05:37:43;;;;;;;84.90;56.60;;;;;;;17.11;100.00;98325.31;4854522;29;20033;-88
2022/09/03 05:40:11;;;;;;;77.78;53.95;;;;;;;17.04;100.00;98315.97;4835633;29;20037;-88
2022/09/03 05:42:37;;;;;;;70.95;49.67;;;;;;;17.04;100.00;98321.28;4848897;29;20048;-90
2022/09/03 05:45:09;;;;;;;76.75;50.67;;;;;;;17.05;100.00;98310.44;4854750;29;20061;-89
2022/09/03 05:47:38;;;;;;;87.63;58.00;;;;;;;17.04;100.00;98324.72;4832729;29;20041;-89
2022/09/03 05:50:09;;;;;;;85.03;55.03;;;;;;;17.04;100.00;98323.91;4844762;29;20038;-87
2022/09/03 05:52:35;;;;;;;79.55;51.25;;;;;;;17.08;100.00;98325.81;4849799;29;20480;-87
2022/09/03 05:55:02;;;;;;;78.63;53.25;;;;;;;17.00;100.00;98310.41;4850232;29;20034;-88
2022/09/03 05:57:29;;;;;;;93.25;60.67;;;;;;;17.06;100.00;98311.22;4833189;29;20040;-90
2022/09/03 05:59:55;;;;;;;84.13;54.72;;;;;;;17.15;100.00;98311.53;4852932;29;20084;-88
2022/09/03 06:02:21;;;;;;;88.63;56.33;;;;;;;17.24;100.00;98324.06;4850451;29;20034;-88
2022/09/03 06:04:46;;;;;;;84.32;55.70;;;;;;;17.22;100.00;98320.88;4849624;29;20050;-88
2022/09/03 06:07:12;;;;;;;82.60;54.47;;;;;;;17.26;100.00;98311.34;4847836;29;20089;-86
2022/09/03 06:09:38;;;;;;;82.40;54.30;;;;;;;17.35;100.00;98313.53;4850025;29;20057;-89
2022/09/03 06:12:03;;;;;;;79.13;54.42;;;;;;;17.47;100.00;98316.75;4864781;29;20065;-89
2022/09/03 06:14:45;;;;;;;85.47;55.72;;;;;;;17.64;100.00;98316.59;4866059;29;20057;-89
2022/09/03 06:17:13;;;;;;;96.53;57.40;;;;;;;17.68;100.00;98308.88;4850707;29;20033;-90
2022/09/03 06:19:39;;;;;;;84.22;57.00;;;;;;;17.80;100.00;98312.13;4849658;29;20571;-88
2022/09/03 06:22:04;;;;;;;91.97;58.72;;;;;;;17.89;100.00;98311.63;4850212;29;20120;-90
2022/09/03 06:24:30;;;;;;;86.28;56.47;;;;;;;17.96;100.00;98305.00;4846643;29;20045;-88
2022/09/03 06:26:56;;;;;;;90.78;59.67;;;;;;;18.15;100.00;98298.44;4835963;29;20377;-90
2022/09/03 06:29:22;;;;;;;92.07;57.95;;;;;;;18.36;100.00;98313.38;4844365;29;20125;-89
2022/09/03 06:31:49;;;;;;;87.70;57.72;;;;;;;18.48;100.00;98307.00;4851353;29;20034;-90
2022/09/03 06:34:17;;;;;;;92.10;60.28;;;;;;;18.56;100.00;98322.41;4853728;29;20422;-89
2022/09/03 06:36:45;;;;;;;102.70;65.30;;;;;;;18.61;100.00;98325.06;4848335;29;20026;-90
2022/09/03 06:39:10;;;;;;;93.40;60.67;;;;;;;18.45;100.00;98302.19;4834366;29;20034;-89
2022/09/03 06:41:36;;;;;;;83.18;57.60;;;;;;;18.70;100.00;98318.19;4831039;29;20382;-88
2022/09/03 06:44:10;;;;;;;85.35;56.47;;;;;;;18.97;100.00;98324.28;4852357;29;20444;-89
2022/09/03 06:46:37;;;;;;;88.78;55.95;;;;;;;19.00;100.00;98322.97;4849583;29;20044;-88
2022/09/03 06:49:04;;;;;;;75.78;53.50;;;;;;;19.04;100.00;98324.03;4852231;29;20041;-90
2022/09/03 06:51:32;;;;;;;70.03;50.25;;;;;;;19.11;100.00;98327.22;4847796;29;20038;-89
2022/09/03 06:54:06;;;;;;;80.78;53.88;;;;;;;19.33;100.00;98334.09;4867541;29;20380;-89
2022/09/03 06:56:34;;;;;;;74.60;51.05;;;;;;;19.35;100.00;98321.31;4851373;29;20451;-88
2022/09/03 06:59:04;;;;;;;69.20;50.15;;;;;;;19.58;100.00;98311.94;4847906;29;20396;-91
2022/09/03 07:01:32;;;;;;;64.93;47.42;;;;;;;19.89;100.00;98327.00;4846637;29;20030;-88
2022/09/03 07:04:03;;;;;;;72.10;49.30;;;;;;;20.09;100.00;98321.59;4851145;29;20082;-88
2022/09/03 07:06:38;;;;;;;58.70;45.17;;;;;;;20.26;100.00;98309.78;4852349;29;20048;-88
2022/09/03 07:09:08;;;;;;;61.58;45.85;;;;;;;20.35;100.00;98305.44;4849073;29;20033;-90
2022/09/03 07:11:34;;;;;;;60.83;45.78;;;;;;;20.47;100.00;98322.97;4849616;29;20058;-89
2022/09/03 07:14:02;;;;;;;67.15;45.92;;;;;;;20.49;100.00;98321.59;4849557;29;20049;-87
2022/09/03 07:16:32;;;;;;;63.25;45.42;;;;;;;20.41;100.00;98317.66;4848592;29;20044;-88
2022/09/03 07:18:59;;;;;;;58.88;42.72;;;;;;;20.42;100.00;98326.47;4828905;29;20049;-87
2022/09/03 07:21:27;;;;;;;56.63;41.85;;;;;;;20.43;100.00;98317.38;4845488;29;20040;-87
2022/09/03 07:23:54;;;;;;;55.50;42.53;;;;;;;20.56;100.00;98318.63;4845830;29;20031;-86
2022/09/03 07:26:22;;;;;;;55.80;43.00;;;;;;;20.67;100.00;98325.50;4849050;29;20082;-87
2022/09/03 07:28:49;;;;;;;57.85;44.28;;;;;;;20.57;100.00;98332.78;4845451;29;20038;-86
2022/09/03 07:31:26;;;;;;;52.80;41.88;;;;;;;20.63;100.00;98329.75;4847245;29;20069;-87
2022/09/03 07:33:56;;;;;;;53.83;41.65;;;;;;;20.63;100.00;98329.75;4851313;29;20135;-86
2022/09/03 07:36:26;;;;;;;57.90;42.75;;;;;;;20.60;100.00;98329.53;4855513;29;20030;-85
2022/09/03 07:38:55;;;;;;;55.38;39.85;;;;;;;20.57;100.00;98320.22;4849448;29;20034;-84
2022/09/03 07:41:22;;;;;;;55.10;41.78;;;;;;;20.58;100.00;98323.69;4848019;29;20034;-84
2022/09/03 07:43:47;;;;;;;52.15;41.53;;;;;;;20.72;100.00;98334.50;4852973;29;20042;-84
2022/09/03 07:46:22;;;;;;;59.45;43.72;;;;;;;20.89;100.00;98326.13;4854272;29;20041;-83
2022/09/03 07:48:53;;;;;;;61.17;44.70;;;;;;;21.06;100.00;98323.06;4845692;29;20045;-83
2022/09/03 07:51:20;;;;;;;55.20;42.08;;;;;;;21.08;100.00;98326.25;4852084;29;20039;-83
2022/09/03 07:53:47;;;;;;;49.70;38.20;;;;;;;21.17;100.00;98326.41;4848617;29;20100;-83
2022/09/03 07:56:14;;;;;;;57.70;42.15;;;;;;;21.43;100.00;98336.81;4853583;29;20044;-83
2022/09/03 07:58:41;;;;;;;52.25;42.40;;;;;;;21.62;100.00;98334.22;4855794;29;20037;-84
2022/09/03 08:01:20;;;;;;;56.95;42.88;;;;;;;21.63;100.00;98331.25;4867394;29;20033;-84
2022/09/03 08:03:51;;;;;;;56.75;43.35;;;;;;;21.71;100.00;98335.19;4852018;29;20034;-83
2022/09/03 08:06:20;;;;;;;55.53;43.30;;;;;;;21.70;100.00;98341.63;4853315;29;20097;-83
2022/09/03 08:08:46;;;;;;;52.08;41.90;;;;;;;21.79;100.00;98336.44;4854119;29;20388;-84
2022/09/03 08:11:14;;;;;;;60.95;43.92;;;;;;;21.71;100.00;98335.19;4853830;29;20034;-83
2022/09/03 08:13:43;;;;;;;53.80;41.40;;;;;;;21.89;100.00;98338.19;4863936;29;20507;-84
2022/09/03 08:16:11;;;;;;;52.45;40.22;;;;;;;21.83;100.00;98327.59;4851558;29;20364;-85
2022/09/03 08:18:39;;;;;;;54.35;43.38;;;;;;;21.70;100.00;98333.63;4854704;29;20045;-82
2022/09/03 08:21:14;;;;;;;54.72;43.28;;;;;;;21.79;100.00;98326.53;4850912;29;20022;-84
2022/09/03 08:23:42;;;;;;;58.75;44.40;;;;;;;21.89;100.00;98330.19;4850695;29;20067;-85
2022/09/03 08:26:09;;;;;;;55.17;44.58;;;;;;;21.74;100.00;98329.28;4837660;29;20034;-85
2022/09/03 08:28:36;;;;;;;57.20;45.05;;;;;;;21.79;100.00;98318.53;4851124;29;20072;-87
2022/09/03 08:31:10;;;;;;;54.67;41.65;;;;;;;21.93;100.00;98320.50;4846543;29;20465;-84
2022/09/03 08:33:38;;;;;;;58.00;45.03;;;;;;;22.07;100.00;98342.78;4850011;29;20033;-84
2022/09/03 08:36:11;;;;;;;58.53;45.65;;;;;;;22.19;100.00;98337.00;4846638;29;20134;-83
2022/09/03 08:38:39;;;;;;;62.78;46.05;;;;;;;22.23;100.00;98350.59;4844986;29;20040;-86
2022/09/03 08:41:15;;;;;;;54.95;43.42;;;;;;;22.39;100.00;98359.97;4850652;29;20032;-84
2022/09/03 08:43:54;;;;;;;55.40;43.95;;;;;;;22.32;100.00;98354.19;4850145;29;20044;-84
2022/09/03 08:46:23;;;;;;;55.03;42.00;;;;;;;22.43;100.00;98356.72;4848866;29;20029;-84
2022/09/03 08:48:51;;;;;;;52.55;41.85;;;;;;;22.42;100.00;98360.50;4849234;29;20034;-84
2022/09/03 08:51:22;;;;;;;55.60;42.80;;;;;;;22.60;100.00;98359.72;4850583;29;20129;-84
2022/09/03 08:53:54;;;;;;;48.38;39.13;;;;;;;22.61;100.00;98361.31;4854170;29;20108;-85
2022/09/03 08:56:25;;;;;;;55.83;42.47;;;;;;;22.46;100.00;98353.47;4846752;29;20034;-85
2022/09/03 08:58:51;;;;;;;50.50;41.60;;;;;;;22.57;100.00;98360.25;4850977;29;20029;-84
2022/09/03 09:01:31;;;;;;;55.10;44.60;;;;;;;22.65;100.00;98366.84;4851072;29;20041;-84
2022/09/03 09:04:23;;;;;;;57.35;42.50;;;;;;;22.66;100.00;98374.59;4845254;29;20026;-84
2022/09/03 09:07:00;;;;;;;58.03;44.25;;;;;;;22.89;100.00;98366.75;4834552;29;20046;-85
2022/09/03 09:10:03;;;;;;;53.35;42.70;;;;;;;23.06;100.00;98368.06;4848496;29;20034;-84
2022/09/03 09:12:40;;;;;;;54.60;42.10;;;;;;;23.17;100.00;98372.16;4844509;29;20045;-85
2022/09/03 09:15:18;;;;;;;54.75;43.58;;;;;;;23.18;100.00;98373.72;4845787;29;20116;-85
2022/09/03 09:18:00;;;;;;;57.95;43.67;;;;;;;23.08;100.00;98357.88;4851764;29;20109;-85
2022/09/03 09:20:49;;;;;;;58.55;43.63;;;;;;;23.09;100.00;98362.13;4851456;29;20054;-86
2022/09/03 09:23:24;;;;;;;57.28;43.45;;;;;;;23.09;100.00;98367.47;4848956;29;20037;-83
2022/09/03 09:25:52;;;;;;;54.08;42.00;;;;;;;23.13;100.00;98373.06;4850175;29;20042;-85
2022/09/03 09:28:21;;;;;;;54.58;41.88;;;;;;;23.06;100.00;98373.44;4853699;29;20048;-83
2022/09/03 09:30:51;;;;;;;54.55;42.92;;;;;;;23.08;100.00;98372.03;4846961;29;20041;-83
2022/09/03 09:33:20;;;;;;;53.90;42.67;;;;;;;23.23;100.00;98364.81;4845628;29;20496;-84
2022/09/03 09:35:50;;;;;;;61.33;45.53;;;;;;;23.43;100.00;98360.22;4858912;29;20426;-83
2022/09/03 09:38:28;;;;;;;56.47;42.78;;;;;;;23.78;100.00;98368.66;4842358;29;20033;-84
2022/09/03 09:41:19;;;;;;;64.57;47.33;;;;;;;23.92;100.00;98374.00;4850135;29;20026;-84
2022/09/03 09:43:48;;;;;;;62.45;49.67;;;;;;;24.06;100.00;98374.81;4848269;29;20037;-84
2022/09/03 09:46:28;;;;;;;63.28;48.55;;;;;;;24.31;100.00;98388.75;4847247;29;20047;-84
2022/09/03 09:48:56;;;;;;;60.47;48.17;;;;;;;24.25;100.00;98371.22;4850688;29;20025;-84
2022/09/03 09:51:29;;;;;;;60.10;47.58;;;;;;;24.07;100.00;98380.97;4849684;29;20069;-83
2022/09/03 09:54:12;;;;;;;62.83;50.55;;;;;;;23.85;100.00;98377.09;4845827;29;20082;-84
2022/09/03 09:56:37;;;;;;;57.85;46.92;;;;;;;23.90;100.00;98373.50;4848789;29;20485;-84
2022/09/03 09:59:09;;;;;;;54.25;43.97;;;;;;;23.87;100.00;98374.91;4852316;29;20037;-86
2022/09/03 10:01:44;;;;;;;60.58;45.35;;;;;;;23.80;100.00;98378.00;4847436;29;20543;-85
2022/09/03 10:04:13;;;;;;;63.70;48.30;;;;;;;23.70;100.00;98377.41;4850800;29;20041;-84
2022/09/03 10:06:55;;;;;;;53.30;42.63;;;;;;;23.89;100.00;98377.28;4863644;29;20046;-84
2022/09/03 10:09:23;;;;;;;55.10;42.53;;;;;;;23.98;100.00;98385.44;4845345;29;20038;-84
2022/09/03 10:12:05;;;;;;;62.70;47.60;;;;;;;24.06;100.00;98384.72;4846643;29;20038;-85
2022/09/03 10:14:44;;;;;;;61.78;46.55;;;;;;;24.12;100.00;98366.66;4860975;29;20120;-84
2022/09/03 10:17:20;;;;;;;55.80;45.67;;;;;;;24.30;100.00;98381.81;4850424;29;20131;-85
2022/09/03 10:22:53;;;;;;;48.55;39.38;;;;;;;24.80;100.00;98385.56;4844794;29;20045;-84
2022/09/03 10:25:20;;;;;;;55.30;39.05;;;;;;;24.82;100.00;98378.00;4847713;29;20041;-86
2022/09/03 10:27:45;;;;;;;53.95;42.88;;;;;;;24.73;100.00;98372.53;4846718;29;20455;-85
2022/09/03 10:30:15;;;;;;;53.30;42.25;;;;;;;24.91;100.00;98384.19;4843601;29;20068;-86
2022/09/03 10:33:19;;;;;;;50.45;38.80;;;;;;;25.12;100.00;98377.53;4846755;29;20100;-85
2022/09/03 10:35:56;;;;;;;45.33;39.67;;;;;;;25.04;100.00;98376.41;4849060;29;20037;-86
2022/09/03 10:38:32;;;;;;;51.05;40.70;;;;;;;25.13;100.00;98376.44;4852868;29;20070;-84
2022/09/03 10:41:19;;;;;;;48.83;41.08;;;;;;;25.23;100.00;98368.91;4848092;29;20128;-85
2022/09/03 10:43:45;;;;;;;50.50;40.38;;;;;;;25.44;100.00;98371.06;4845553;29;20034;-85
2022/09/03 10:46:28;;;;;;;49.92;41.78;;;;;;;25.53;100.00;98368.44;4833624;29;20037;-85
2022/09/03 10:48:53;;;;;;;52.33;41.55;;;;;;;25.57;100.00;98368.63;4848172;29;20042;-85
2022/09/03 10:51:25;;;;;;;47.88;41.17;;;;;;;25.46;100.00;98363.47;4847090;29;20475;-85
2022/09/03 10:54:19;;;;;;;46.72;37.70;;;;;;;25.48;100.00;98355.94;4832862;29;20046;-85
2022/09/03 10:57:04;;;;;;;46.20;37.13;;;;;;;25.36;100.00;98363.78;4846868;29;20054;-84
2022/09/03 10:59:41;;;;;;;39.30;32.30;;;;;;;25.55;100.00;98366.22;4847767;29;20121;-86
2022/09/03 11:02:16;;;;;;;36.80;29.02;;;;;;;25.23;100.00;98323.25;4851854;29;20033;-85
2022/09/03 11:04:50;;;;;;;28.77;25.73;;;;;;;25.48;100.00;98355.94;4849658;29;20037;-84
2022/09/03 11:07:21;;;;;;;30.95;27.60;;;;;;;25.46;100.00;98362.72;4847988;29;20101;-85
2022/09/03 11:10:16;;;;;;;35.30;26.27;;;;;;;25.50;100.00;98361.78;4848542;29;20395;-86
2022/09/03 11:12:48;;;;;;;35.35;28.15;;;;;;;25.45;100.00;98358.41;4837669;29;20391;-84
2022/09/03 11:15:40;;;;;;;31.92;26.13;;;;;;;25.68;100.00;98353.78;4857284;29;20052;-85
2022/09/03 11:18:20;;;;;;;32.57;26.07;;;;;;;25.80;100.00;98353.97;4851286;29;20116;-85
2022/09/03 11:20:49;;;;;;;32.05;27.65;;;;;;;25.84;100.00;98347.97;4851677;29;20277;-85
2022/09/03 11:23:18;;;;;;;29.20;23.67;;;;;;;26.09;100.00;98344.53;4867173;29;20045;-86
2022/09/03 11:25:53;;;;;;;29.88;22.92;;;;;;;26.25;100.00;98354.84;4853914;29;20036;-86
2022/09/03 11:28:47;;;;;;;24.95;20.33;;;;;;;26.51;100.00;98357.56;4853569;29;20480;-86
2022/09/03 11:31:31;;;;;;;28.48;23.17;;;;;;;26.46;100.00;98355.03;4869973;29;20552;-84
2022/09/03 11:34:06;;;;;;;27.80;24.73;;;;;;;26.47;100.00;98353.91;4849312;29;20063;-86
2022/09/03 11:36:36;;;;;;;34.08;27.13;;;;;;;26.30;100.00;98356.59;4853273;29;20030;-85
2022/09/03 11:39:32;;;;;;;29.63;23.63;;;;;;;26.12;100.00;98353.88;4850947;29;20037;-85